Time;durP1;ratioP1;P1;durP2;ratioP2;P2;SDS_P1;SDS_P2;PMS_P1;PMS_P2;Temp;Humidity;BMP_temperature;BMP_pressure;BME280_temperature;BME280_humidity;BME280_pressure;Samples;Min_cycle;Max_cycle;Signal;HPM_P1;HPM_P2
2022/04/09 00:01:55;;;;;;;;;18.00;13.33;;;31.53;96233.48;;;;117005;1193;24891;-8
2022/04/09 00:04:24;;;;;;;;;16.33;13.67;;;31.50;96243.65;;;;117208;1192;25403;-8
2022/04/09 00:06:54;;;;;;;;;19.25;14.00;;;31.54;96237.05;;;;117024;1192;25446;-9
2022/04/09 00:09:25;;;;;;;;;20.00;13.33;;;31.51;96233.12;;;;117103;1192;25295;-8
2022/04/09 00:11:53;;;;;;;;;18.67;16.00;;;31.52;96231.66;;;;117037;1193;25681;-10
2022/04/09 00:14:24;;;;;;;;;12.67;11.00;;;31.47;96227.86;;;;117233;1192;25452;-11
2022/04/09 00:16:53;;;;;;;;;14.25;13.00;;;31.51;96229.27;;;;117091;1191;25145;-8
2022/04/09 00:19:21;;;;;;;;;11.50;10.50;;;31.49;96230.23;;;;117112;1191;25849;-7
2022/04/09 00:21:54;;;;;;;;;15.00;12.00;;;31.50;96224.66;;;;117312;1192;24856;-7
2022/04/09 00:24:36;;;;;;;;;14.75;12.25;;;31.61;96218.30;;;;117090;1193;25233;-7
2022/04/09 00:27:10;;;;;;;;;13.33;12.67;;;31.62;96205.74;;;;117008;1193;25151;-7
2022/04/09 00:29:41;;;;;;;;;11.67;11.67;;;31.57;96212.89;;;;116977;1191;25489;-7
2022/04/09 00:32:11;;;;;;;;;8.00;8.00;;;31.50;96216.39;;;;117052;1192;25460;-7
2022/04/09 00:34:39;;;;;;;;;14.00;14.00;;;31.47;96206.66;;;;117063;1193;25781;-7
2022/04/09 00:37:10;;;;;;;;;10.33;9.33;;;31.47;96194.86;;;;116986;1193;25333;-8
2022/04/09 00:39:41;;;;;;;;;13.67;12.00;;;31.45;96192.72;;;;117079;1193;25827;-8
2022/04/09 00:42:18;;;;;;;;;16.00;13.75;;;31.45;96194.77;;;;117157;1193;25456;-8
2022/04/09 00:44:49;;;;;;;;;13.25;11.75;;;31.47;96200.43;;;;117105;1192;25769;-8
2022/04/09 00:47:21;;;;;;;;;19.25;14.25;;;31.48;96204.67;;;;116979;1192;25712;-7
2022/04/09 00:49:55;;;;;;;;;19.25;14.75;;;31.45;96194.48;;;;117029;1192;25441;-12
2022/04/09 00:52:28;;;;;;;;;18.33;16.67;;;31.46;96200.77;;;;117018;1193;26220;-7
2022/04/09 00:54:58;;;;;;;;;20.75;17.50;;;31.43;96186.15;;;;117237;1192;25326;-7
2022/04/09 00:57:27;;;;;;;;;16.50;12.75;;;31.49;96194.68;;;;116900;1193;25733;-7
2022/04/09 00:59:56;;;;;;;;;13.67;13.67;;;31.44;96186.55;;;;117053;1193;25724;-8
2022/04/09 01:02:24;;;;;;;;;18.00;17.00;;;31.42;96176.41;;;;117014;1192;25047;-7
2022/04/09 01:04:57;;;;;;;;;18.00;15.00;;;31.41;96188.81;;;;117067;1193;24987;-7
2022/04/09 01:07:29;;;;;;;;;19.00;13.67;;;31.40;96172.92;;;;117281;1192;25165;-6
2022/04/09 01:10:03;;;;;;;;;15.00;15.00;;;31.51;96184.86;;;;116933;1192;25369;-7
2022/04/09 01:12:34;;;;;;;;;17.00;15.50;;;31.47;96176.66;;;;116994;1193;25647;-6
2022/04/09 01:15:04;;;;;;;;;15.67;14.67;;;31.42;96181.04;;;;117061;1193;25403;-7
2022/04/09 01:17:37;;;;;;;;;17.50;15.00;;;31.41;96173.70;;;;117102;1192;25635;-7
2022/04/09 01:20:20;;;;;;;;;15.25;13.50;;;31.40;96171.64;;;;117086;1193;25383;-7
2022/04/09 01:22:49;;;;;;;;;16.75;15.50;;;31.42;96168.75;;;;117015;1193;25381;-16
2022/04/09 01:25:19;;;;;;;;;21.00;18.67;;;31.41;96160.42;;;;117022;1193;25302;-7
2022/04/09 01:27:47;;;;;;;;;14.50;12.50;;;31.36;96156.80;;;;117050;1193;24983;-6
2022/04/09 01:30:16;;;;;;;;;17.00;16.00;;;31.35;96141.73;;;;116962;1193;25105;-7
2022/04/09 01:32:49;;;;;;;;;14.25;12.25;;;31.33;96145.99;;;;117080;1192;25293;-7
2022/04/09 01:35:17;;;;;;;;;19.25;16.00;;;31.33;96142.52;;;;117036;1192;25242;-7
2022/04/09 01:37:47;;;;;;;;;16.25;15.25;;;31.32;96136.14;;;;116960;1191;25649;-9
2022/04/09 01:40:15;;;;;;;;;15.00;13.75;;;31.27;96128.19;;;;117158;1193;25642;-8
2022/04/09 01:42:43;;;;;;;;;14.00;13.67;;;31.33;96126.05;;;;117048;1192;25349;-7
2022/04/09 01:45:14;;;;;;;;;13.50;12.00;;;31.32;96120.50;;;;117080;1192;25650;-7
2022/04/09 01:47:43;;;;;;;;;16.67;14.00;;;31.31;96119.05;;;;117014;1193;26335;-7
2022/04/09 01:50:11;;;;;;;;;14.50;14.50;;;31.28;96119.64;;;;117213;1190;25563;-10
2022/04/09 01:52:43;;;;;;;;;19.50;15.25;;;31.29;96118.30;;;;117117;1193;25722;-7
2022/04/09 01:55:10;;;;;;;;;14.50;12.00;;;31.27;96117.01;;;;117023;1193;25095;-7
2022/04/09 01:57:41;;;;;;;;;20.50;18.25;;;31.24;96112.05;;;;117144;1191;25565;-8
2022/04/09 02:00:12;;;;;;;;;16.75;13.50;;;31.24;96106.95;;;;117223;1192;25271;-6
2022/04/09 02:02:41;;;;;;;;;18.00;15.50;;;31.29;96102.51;;;;117005;1193;25436;-7
2022/04/09 02:05:11;;;;;;;;;14.50;14.00;;;31.26;96098.98;;;;117158;1193;25309;-7
2022/04/09 02:07:44;;;;;;;;;20.25;16.75;;;31.26;96095.09;;;;117060;1192;25550;-7
2022/04/09 02:10:19;;;;;;;;;17.50;15.25;;;31.23;96094.45;;;;117135;1193;25343;-7
2022/04/09 02:12:49;;;;;;;;;18.25;17.25;;;31.26;96095.45;;;;117096;1192;25624;-7
2022/04/09 02:15:19;;;;;;;;;18.00;14.33;;;31.26;96089.04;;;;117082;1192;25346;-7
2022/04/09 02:17:51;;;;;;;;;14.00;14.00;;;31.23;96090.87;;;;117126;1193;24874;-7
2022/04/09 02:20:20;;;;;;;;;11.50;11.50;;;31.22;96090.35;;;;116995;1192;25426;-13
2022/04/09 02:22:48;;;;;;;;;18.67;18.00;;;31.18;96090.73;;;;117331;1192;26510;-10
2022/04/09 02:25:17;;;;;;;;;16.67;15.33;;;31.24;96083.02;;;;117070;1193;25230;-8
2022/04/09 02:27:45;;;;;;;;;14.00;14.00;;;31.20;96080.73;;;;117031;1193;25687;-9
2022/04/09 02:30:16;;;;;;;;;13.50;12.25;;;31.20;96081.64;;;;117025;1192;25738;-8
2022/04/09 02:32:49;;;;;;;;;17.25;13.25;;;31.16;96077.98;;;;117106;1192;25882;-7
2022/04/09 02:35:18;;;;;;;;;17.00;15.25;;;31.18;96078.86;;;;117042;1192;25175;-8
2022/04/09 02:37:50;;;;;;;;;18.33;15.33;;;31.18;96085.08;;;;117091;1192;25609;-9
2022/04/09 02:40:20;;;;;;;;;18.50;16.75;;;31.15;96089.80;;;;117161;1193;25830;-8
2022/04/09 02:42:49;;;;;;;;;19.00;15.75;;;31.17;96089.23;;;;117039;1192;26512;-5
2022/04/09 02:45:20;;;;;;;;;16.50;13.50;;;31.15;96085.51;;;;117206;1192;25404;-5
2022/04/09 02:47:49;;;;;;;;;14.50;13.50;;;31.18;96085.91;;;;117039;1191;25587;-6
2022/04/09 02:50:19;;;;;;;;;9.75;7.50;;;31.17;96085.52;;;;116962;1192;25090;-10
2022/04/09 02:52:49;;;;;;;;;16.50;15.50;;;31.10;96084.30;;;;117068;1192;26040;-9
2022/04/09 02:55:17;;;;;;;;;16.75;16.00;;;31.09;96068.01;;;;116948;1192;25192;-9
2022/04/09 02:57:48;;;;;;;;;15.75;15.50;;;31.07;96067.17;;;;117182;1192;24948;-8
2022/04/09 03:00:17;;;;;;;;;16.25;13.75;;;31.11;96077.19;;;;116984;1191;24759;-8
2022/04/09 03:02:45;;;;;;;;;16.00;14.75;;;31.08;96078.31;;;;116989;1192;26077;-8
2022/04/09 03:05:15;;;;;;;;;15.00;15.00;;;31.04;96078.70;;;;117091;1193;25138;-5
2022/04/09 03:07:45;;;;;;;;;16.33;14.33;;;31.06;96080.13;;;;117116;1192;25020;-7
2022/04/09 03:10:15;;;;;;;;;17.00;15.00;;;31.08;96078.00;;;;117017;1192;25769;-6
2022/04/09 03:12:46;;;;;;;;;19.75;16.25;;;31.07;96075.52;;;;117244;1192;25862;-7
2022/04/09 03:15:15;;;;;;;;;19.25;14.00;;;31.13;96070.51;;;;117025;1191;25061;-10
2022/04/09 03:17:43;;;;;;;;;19.00;15.67;;;31.10;96066.89;;;;117094;1192;25290;-10
2022/04/09 03:20:20;;;;;;;;;19.50;15.50;;;31.08;96065.40;;;;117190;1192;25278;-9
2022/04/09 03:22:48;;;;;;;;;17.00;13.50;;;31.12;96065.89;;;;117150;1192;25406;-8
2022/04/09 03:25:19;;;;;;;;;19.25;15.00;;;31.15;96066.30;;;;117739;1184;25000;-9
2022/04/09 03:27:47;;;;;;;;;17.50;15.00;;;31.31;96072.59;;;;117159;1191;24977;-8
2022/04/09 03:30:18;;;;;;;;;18.00;14.00;;;31.24;96066.98;;;;117414;1189;25484;-11
2022/04/09 03:32:46;;;;;;;;;16.75;16.25;;;31.26;96070.09;;;;117142;1191;24911;-9
2022/04/09 03:35:17;;;;;;;;;21.00;17.50;;;31.20;96074.38;;;;117255;1191;24785;-9
2022/04/09 03:37:49;;;;;;;;;22.50;16.75;;;31.20;96074.91;;;;117061;1191;25442;-10
2022/04/09 03:40:20;;;;;;;;;20.75;15.75;;;31.20;96079.38;;;;117445;1192;24882;-9
2022/04/09 03:42:49;;;;;;;;;23.25;21.00;;;31.31;96077.00;;;;117249;1192;25593;-9
2022/04/09 03:45:18;;;;;;;;;26.67;24.33;;;31.35;96074.66;;;;117153;1192;24926;-9
2022/04/09 03:47:45;;;;;;;;;28.75;22.25;;;31.33;96080.05;;;;117397;1190;25350;-12
2022/04/09 03:50:17;;;;;;;;;22.25;20.25;;;31.44;96082.52;;;;117251;1191;25498;-9
2022/04/09 03:52:45;;;;;;;;;23.00;18.50;;;31.51;96082.79;;;;117177;1192;26315;-6
2022/04/09 03:55:13;;;;;;;;;21.50;21.25;;;31.53;96085.92;;;;117066;1193;25506;-8
2022/04/09 03:57:43;;;;;;;;;26.50;19.00;;;31.57;96090.78;;;;117225;1191;26228;-8
2022/04/09 04:00:18;;;;;;;;;18.25;17.50;;;31.67;96088.98;;;;117292;1190;25486;-8
2022/04/09 04:02:47;;;;;;;;;19.00;15.75;;;31.77;96086.85;;;;117016;1192;24741;-8
2022/04/09 04:05:20;;;;;;;;;24.00;23.33;;;31.79;96087.73;;;;117404;1191;25246;-8
2022/04/09 04:07:58;;;;;;;;;;;;;;;;;;;;;
2022/04/09 04:10:28;;;;;;;;;21.50;19.50;;;31.96;96091.48;;;;117101;1190;24980;-9
2022/04/09 04:12:58;;;;;;;;;21.50;15.75;;;32.01;96097.41;;;;117440;1190;25611;-9
2022/04/09 04:15:27;;;;;;;;;22.50;18.75;;;32.10;96097.21;;;;117254;1191;25051;-8
2022/04/09 04:17:55;;;;;;;;;22.75;20.50;;;32.14;96101.41;;;;117089;1193;25278;-8
2022/04/09 04:20:24;;;;;;;;;16.50;16.50;;;32.19;96100.80;;;;117027;1192;24735;-8
2022/04/09 04:22:52;;;;;;;;;21.50;20.50;;;32.22;96104.27;;;;117228;1191;24913;-8
2022/04/09 04:25:21;;;;;;;;;26.00;22.33;;;32.27;96101.17;;;;117203;1190;25618;-12
2022/04/09 04:27:49;;;;;;;;;22.00;18.67;;;32.37;96102.48;;;;117211;1191;25294;-9
2022/04/09 04:30:18;;;;;;;;;23.25;21.25;;;32.44;96105.27;;;;117061;1191;25040;-12
2022/04/09 04:32:46;;;;;;;;;26.00;25.00;;;32.48;96100.73;;;;117071;1193;25326;-9
2022/04/09 04:35:14;;;;;;;;;26.75;25.00;;;32.47;96093.95;;;;117022;1192;25149;-9
2022/04/09 04:37:46;;;;;;;;;24.25;22.75;;;32.51;96089.56;;;;117099;1193;25071;-9
2022/04/09 04:40:17;;;;;;;;;25.50;23.50;;;32.57;96093.17;;;;117155;1191;24999;-10
2022/04/09 04:42:45;;;;;;;;;25.50;24.75;;;32.62;96092.36;;;;117088;1192;24930;-9
2022/04/09 04:45:13;;;;;;;;;23.75;21.25;;;32.66;96094.87;;;;117043;1192;25325;-8
2022/04/09 04:47:46;;;;;;;;;27.00;21.00;;;32.66;96087.50;;;;117313;1192;24962;-7
2022/04/09 04:50:15;;;;;;;;;28.33;24.00;;;32.76;96091.48;;;;117075;1192;25899;-9
2022/04/09 04:52:43;;;;;;;;;18.00;18.00;;;32.80;96089.90;;;;117101;1193;24819;-9
2022/04/09 04:55:12;;;;;;;;;26.25;23.50;;;32.82;96105.52;;;;117243;1194;24851;-10
2022/04/09 04:57:43;;;;;;;;;29.00;25.75;;;32.94;96099.16;;;;117227;1193;25703;-9
2022/04/09 05:00:13;;;;;;;;;28.75;24.25;;;32.99;96104.81;;;;117139;1193;26425;-11
2022/04/09 05:02:41;;;;;;;;;27.50;25.50;;;33.01;96099.96;;;;117114;1192;25276;-8
2022/04/09 05:05:09;;;;;;;;;32.33;24.33;;;33.02;96098.32;;;;117015;1193;25247;-9
2022/04/09 05:07:41;;;;;;;;;27.75;21.00;;;33.00;96095.98;;;;117404;1193;26283;-9
2022/04/09 05:10:11;;;;;;;;;25.50;22.00;;;33.12;96097.86;;;;117123;1193;25290;-9
2022/04/09 05:12:41;;;;;;;;;25.50;22.25;;;33.12;96100.73;;;;117178;1191;25402;-9
2022/04/09 05:15:11;;;;;;;;;27.33;25.00;;;33.19;96099.52;;;;117160;1193;25538;-9
2022/04/09 05:17:40;;;;;;;;;31.00;28.75;;;33.20;96096.48;;;;117085;1193;26409;-9
2022/04/09 05:20:14;;;;;;;;;29.00;26.75;;;33.19;96101.20;;;;117151;1193;25529;-9
2022/04/09 05:22:46;;;;;;;;;26.25;24.50;;;33.23;96095.76;;;;117117;1191;25570;-8
2022/04/09 05:25:21;;;;;;;;;26.75;24.50;;;33.24;96093.64;;;;117209;1192;25594;-9
2022/04/09 05:27:50;;;;;;;;;31.00;25.50;;;33.25;96091.60;;;;117160;1192;25635;-9
2022/04/09 05:30:18;;;;;;;;;27.75;23.25;;;33.19;96093.34;;;;117359;1191;24965;-9
2022/04/09 05:32:46;;;;;;;;;29.00;27.33;;;33.18;96089.71;;;;117407;1191;25039;-9
2022/04/09 05:35:14;;;;;;;;;28.50;24.25;;;33.20;96094.86;;;;117251;1191;25028;-9
2022/04/09 05:37:46;;;;;;;;;27.00;21.75;;;33.17;96095.98;;;;117422;1190;25245;-9
2022/04/09 05:40:15;;;;;;;;;23.33;22.00;;;33.19;96094.84;;;;117333;1192;25660;-9
2022/04/09 05:42:42;;;;;;;;;28.50;23.75;;;33.20;96101.93;;;;117242;1191;25673;-8
2022/04/09 05:45:11;;;;;;;;;25.33;18.67;;;33.15;96102.02;;;;117191;1191;24763;-9
2022/04/09 05:47:43;;;;;;;;;27.00;24.33;;;33.10;96102.80;;;;117170;1192;25199;-9
2022/04/09 05:50:12;;;;;;;;;29.75;24.75;;;33.06;96096.50;;;;117386;1191;25043;-9
2022/04/09 05:52:41;;;;;;;;;22.67;21.33;;;33.11;96095.14;;;;117218;1189;25467;-7
2022/04/09 05:55:10;;;;;;;;;23.25;21.00;;;33.09;96092.92;;;;117225;1190;24781;-9
2022/04/09 05:57:38;;;;;;;;;30.00;25.25;;;33.09;96092.05;;;;117142;1194;25072;-9
2022/04/09 06:00:07;;;;;;;;;22.50;21.25;;;33.13;96093.54;;;;117168;1191;25394;-9
2022/04/09 06:02:37;;;;;;;;;23.25;23.25;;;33.13;96090.48;;;;117432;1190;24993;-9
2022/04/09 06:05:06;;;;;;;;;26.00;20.00;;;33.18;96089.06;;;;117438;1191;25776;-9
2022/04/09 06:07:35;;;;;;;;;26.50;23.75;;;33.22;96092.92;;;;117369;1192;25477;-9
2022/04/09 06:10:06;;;;;;;;;23.00;20.67;;;33.20;96090.17;;;;117271;1192;25628;-9
2022/04/09 06:12:34;;;;;;;;;24.67;19.33;;;33.19;96090.93;;;;117280;1192;25183;-9
2022/04/09 06:15:03;;;;;;;;;29.00;23.25;;;33.21;96093.73;;;;117331;1190;25435;-9
2022/04/09 06:17:31;;;;;;;;;26.00;22.50;;;33.20;96091.91;;;;117157;1190;25594;-9
2022/04/09 06:19:59;;;;;;;;;24.50;22.50;;;33.10;96093.80;;;;117256;1191;24892;-12
2022/04/09 06:22:28;;;;;;;;;30.33;27.00;;;33.06;96098.79;;;;117335;1190;25036;-9
2022/04/09 06:25:00;;;;;;;;;31.50;29.00;;;33.07;96099.27;;;;117297;1191;25617;-10
2022/04/09 06:27:29;;;;;;;;;26.75;23.00;;;33.06;96100.96;;;;117270;1191;25312;-9
2022/04/09 06:29:58;;;;;;;;;32.50;30.00;;;33.04;96105.98;;;;117185;1191;24857;-9
2022/04/09 06:32:27;;;;;;;;;22.00;19.50;;;32.98;96102.92;;;;117454;1191;25347;-12
2022/04/09 06:34:55;;;;;;;;;32.50;27.25;;;32.99;96103.54;;;;117305;1190;25597;-12
2022/04/09 06:37:25;;;;;;;;;28.00;24.00;;;32.98;96104.65;;;;117213;1190;25510;-9
2022/04/09 06:39:52;;;;;;;;;27.67;27.00;;;32.90;96106.05;;;;117382;1190;25794;-9
2022/04/09 06:42:22;;;;;;;;;32.00;26.00;;;32.90;96098.68;;;;117364;1191;25272;-10
2022/04/09 06:44:51;;;;;;;;;34.67;30.67;;;32.87;96103.78;;;;117060;1193;25203;-10
2022/04/09 06:47:19;;;;;;;;;22.25;22.25;;;32.81;96105.56;;;;117286;1191;24697;-9
2022/04/09 06:49:48;;;;;;;;;23.50;23.50;;;32.77;96109.84;;;;117085;1192;25211;-9
2022/04/09 06:52:16;;;;;;;;;24.50;23.25;;;32.73;96111.95;;;;117131;1191;25738;-10
2022/04/09 06:54:44;;;;;;;;;26.33;23.67;;;32.71;96115.58;;;;117323;1191;25230;-10
2022/04/09 06:57:11;;;;;;;;;31.00;27.50;;;32.73;96117.59;;;;117315;1192;25092;-9
2022/04/09 06:59:39;;;;;;;;;25.75;21.00;;;32.76;96122.44;;;;117434;1190;25656;-9
2022/04/09 07:02:07;;;;;;;;;29.00;26.33;;;32.87;96120.06;;;;117567;1190;25553;-9
2022/04/09 07:04:35;;;;;;;;;22.00;22.00;;;32.96;96125.73;;;;117315;1191;24961;-8
2022/04/09 07:07:03;;;;;;;;;27.00;23.50;;;32.93;96126.64;;;;117501;1189;24870;-9
2022/04/09 07:09:31;;;;;;;;;26.00;24.00;;;32.98;96128.21;;;;117518;1191;25212;-9
2022/04/09 07:11:59;;;;;;;;;21.67;18.33;;;33.03;96130.95;;;;117356;1191;25499;-10
2022/04/09 07:14:26;;;;;;;;;30.00;26.50;;;33.07;96128.30;;;;117517;1189;25515;-10
2022/04/09 07:16:58;;;;;;;;;28.00;24.33;;;33.11;96128.48;;;;117564;1191;24910;-10
2022/04/09 07:19:26;;;;;;;;;28.33;22.67;;;33.14;96130.64;;;;117684;1192;25720;-9
2022/04/09 07:21:54;;;;;;;;;25.00;24.00;;;33.26;96129.11;;;;117742;1191;25678;-9
2022/04/09 07:24:23;;;;;;;;;26.75;23.50;;;33.34;96129.77;;;;117446;1191;25853;-9
2022/04/09 07:26:51;;;;;;;;;25.33;23.67;;;33.32;96135.15;;;;117482;1191;25562;-9
2022/04/09 07:29:19;;;;;;;;;28.67;24.33;;;33.32;96134.96;;;;117333;1189;25408;-9
2022/04/09 07:31:47;;;;;;;;;30.00;25.50;;;33.27;96137.20;;;;117445;1190;25232;-9
2022/04/09 07:34:16;;;;;;;;;30.33;23.67;;;33.28;96132.13;;;;117202;1191;25006;-9
2022/04/09 07:36:44;;;;;;;;;29.50;24.00;;;33.18;96131.89;;;;117423;1191;25069;-10
2022/04/09 07:39:12;;;;;;;;;30.33;25.67;;;33.18;96138.64;;;;117462;1191;26399;-8
2022/04/09 07:41:42;;;;;;;;;28.00;23.00;;;33.12;96139.54;;;;117524;1191;25383;-10
2022/04/09 07:44:10;;;;;;;;;31.67;27.67;;;33.15;96137.99;;;;117382;1191;25426;-9
2022/04/09 07:46:39;;;;;;;;;43.00;34.25;;;33.13;96149.36;;;;117382;1191;24990;-11
2022/04/09 07:49:08;;;;;;;;;40.00;33.75;;;33.03;96156.48;;;;117569;1191;25493;-8
2022/04/09 07:51:36;;;;;;;;;42.33;36.00;;;32.99;96155.75;;;;117335;1191;24878;-8
2022/04/09 07:54:04;;;;;;;;;39.25;30.75;;;32.89;96154.77;;;;117397;1191;25027;-8
2022/04/09 07:56:32;;;;;;;;;45.00;33.75;;;32.81;96154.63;;;;117396;1191;24698;-12
2022/04/09 07:58:59;;;;;;;;;37.33;30.33;;;32.76;96149.52;;;;117327;1191;25214;-9
2022/04/09 08:01:27;;;;;;;;;45.50;35.25;;;32.72;96148.16;;;;117331;1191;24977;-12
2022/04/09 08:03:56;;;;;;;;;35.00;31.67;;;32.71;96146.69;;;;117407;1191;25405;-8
2022/04/09 08:06:24;;;;;;;;;30.00;28.00;;;32.68;96149.30;;;;117047;1192;25744;-8
2022/04/09 08:08:52;;;;;;;;;39.00;31.75;;;32.61;96140.27;;;;117183;1191;24992;-9
2022/04/09 08:11:20;;;;;;;;;35.75;28.50;;;32.61;96141.45;;;;117290;1189;25453;-8
2022/04/09 08:13:48;;;;;;;;;34.00;29.00;;;32.66;96148.97;;;;117441;1190;25407;-9
2022/04/09 08:16:16;;;;;;;;;34.25;28.50;;;32.70;96156.15;;;;117219;1192;25617;-10
2022/04/09 08:18:44;;;;;;;;;25.00;24.75;;;32.64;96155.77;;;;117434;1190;24734;-10
2022/04/09 08:21:12;;;;;;;;;33.00;25.75;;;32.67;96155.89;;;;117275;1193;25585;-10
2022/04/09 08:23:41;;;;;;;;;33.75;29.25;;;32.68;96157.61;;;;117175;1191;25355;-10
2022/04/09 08:26:09;;;;;;;;;28.00;24.00;;;32.59;96160.91;;;;117273;1191;26272;-9
2022/04/09 08:28:37;;;;;;;;;36.50;31.00;;;32.55;96160.17;;;;117174;1192;25120;-12
2022/04/09 08:31:06;;;;;;;;;34.25;31.00;;;32.49;96160.20;;;;117354;1191;25503;-8
2022/04/09 08:33:35;;;;;;;;;31.75;27.75;;;32.50;96161.59;;;;117072;1192;25709;-9
2022/04/09 08:36:06;;;;;;;;;28.50;26.00;;;32.49;96168.20;;;;117349;1191;25662;-8
2022/04/09 08:38:37;;;;;;;;;31.25;26.25;;;32.53;96172.06;;;;117237;1191;24815;-8
2022/04/09 08:41:07;;;;;;;;;29.25;22.50;;;32.57;96173.15;;;;117536;1191;25712;-9
2022/04/09 08:43:35;;;;;;;;;31.50;28.00;;;32.68;96178.09;;;;117139;1193;25809;-9
2022/04/09 08:46:03;;;;;;;;;33.50;27.50;;;32.66;96179.27;;;;117391;1191;25272;-9
2022/04/09 08:48:31;;;;;;;;;35.75;30.25;;;32.65;96178.16;;;;117446;1191;25488;-9
2022/04/09 08:50:59;;;;;;;;;29.67;24.00;;;32.74;96180.05;;;;117262;1192;25092;-9
2022/04/09 08:53:49;;;;;;;;;25.25;21.50;;;32.80;96178.38;;;;118264;1190;25594;-8
2022/04/09 08:56:18;;;;;;;;;30.67;25.00;;;33.09;96180.23;;;;117240;1193;25473;-7
2022/04/09 08:58:46;;;;;;;;;27.00;26.75;;;32.97;96176.61;;;;117453;1191;25166;-10
2022/04/09 09:01:14;;;;;;;;;25.00;22.33;;;32.85;96179.13;;;;117532;1191;26181;-7
2022/04/09 09:03:42;;;;;;;;;32.75;26.00;;;32.83;96176.77;;;;117329;1192;24912;-9
2022/04/09 09:06:28;;;;;;;;;32.50;27.50;;;32.73;96181.64;;;;117220;1191;25438;-9
2022/04/09 09:08:57;;;;;;;;;28.75;23.75;;;32.64;96182.57;;;;117180;1191;25387;-9
2022/04/09 09:11:29;;;;;;;;;18.25;17.25;;;32.61;96179.52;;;;117273;1191;25334;-10
2022/04/09 09:13:58;;;;;;;;;28.50;24.50;;;32.73;96186.33;;;;117251;1191;25044;-9
2022/04/09 09:16:31;;;;;;;;;21.00;21.00;;;32.79;96197.13;;;;117257;1191;25220;-9
2022/04/09 09:19:04;;;;;;;;;31.00;27.00;;;32.85;96200.40;;;;117247;1190;24866;-15
2022/04/09 09:21:32;;;;;;;;;29.33;26.00;;;32.87;96193.73;;;;117306;1191;24948;-9
2022/04/09 09:24:09;;;;;;;;;32.50;26.00;;;32.92;96194.36;;;;117196;1192;25041;-10
2022/04/09 09:26:40;;;;;;;;;35.50;31.00;;;32.95;96195.80;;;;117501;1191;24922;-9
2022/04/09 09:29:09;;;;;;;;;35.50;29.00;;;33.12;96198.69;;;;117236;1192;25368;-9
2022/04/09 09:31:46;;;;;;;;;37.67;30.33;;;33.23;96208.92;;;;117033;1193;25364;-9
2022/04/09 09:34:16;;;;;;;;;28.00;26.00;;;33.22;96210.64;;;;117108;1191;26396;-9
2022/04/09 09:36:45;;;;;;;;;29.00;26.25;;;33.24;96207.84;;;;117038;1193;25019;-9
2022/04/09 09:39:15;;;;;;;;;32.00;24.75;;;33.21;96203.97;;;;117071;1193;24726;-9
2022/04/09 09:41:49;;;;;;;;;32.00;27.50;;;33.21;96199.77;;;;117030;1193;25154;-9
2022/04/09 09:44:26;;;;;;;;;22.75;22.50;;;33.23;96201.33;;;;117106;1193;25461;-9
2022/04/09 09:47:08;;;;;;;;;32.00;28.25;;;33.25;96210.26;;;;117081;1193;25229;-8
2022/04/09 09:49:38;;;;;;;;;29.67;27.00;;;33.29;96209.63;;;;117103;1192;25735;-9
2022/04/09 09:52:09;;;;;;;;;26.33;25.00;;;33.33;96206.55;;;;117060;1194;25177;-9
2022/04/09 09:54:56;;;;;;;;;22.25;22.25;;;33.34;96210.05;;;;117192;1191;24826;-8
2022/04/09 09:57:29;;;;;;;;;27.67;27.00;;;33.36;96208.17;;;;117159;1191;25028;-9
2022/04/09 10:00:01;;;;;;;;;28.00;24.75;;;33.38;96204.99;;;;117111;1193;25958;-8
2022/04/09 10:02:32;;;;;;;;;27.33;26.00;;;33.42;96203.00;;;;116984;1193;25700;-9
2022/04/09 10:05:00;;;;;;;;;26.00;23.50;;;33.45;96206.23;;;;117200;1192;24820;-10
2022/04/09 10:07:34;;;;;;;;;22.00;19.50;;;33.50;96202.73;;;;116994;1192;25628;-8
2022/04/09 10:10:04;;;;;;;;;24.50;24.50;;;33.48;96199.03;;;;117229;1193;24944;-9
2022/04/09 10:12:39;;;;;;;;;31.00;26.25;;;33.54;96196.63;;;;117285;1193;25195;-8
2022/04/09 10:15:08;;;;;;;;;25.50;23.50;;;33.66;96192.64;;;;117692;1193;25611;-8
2022/04/09 10:17:37;;;;;;;;;27.00;24.67;;;33.88;96191.25;;;;117340;1193;24985;-9
2022/04/09 10:20:06;;;;;;;;;34.50;30.50;;;33.89;96195.77;;;;117038;1193;25485;-9
2022/04/09 10:22:42;;;;;;;;;32.00;26.75;;;33.82;96195.52;;;;117160;1191;25099;-9
2022/04/09 10:25:12;;;;;;;;;29.75;27.25;;;33.79;96192.58;;;;117258;1193;24982;-9
2022/04/09 10:27:53;;;;;;;;;28.75;25.50;;;33.85;96188.63;;;;117329;1191;24988;-9
2022/04/09 10:30:24;;;;;;;;;25.50;23.00;;;33.89;96185.98;;;;117052;1193;25562;-10
2022/04/09 10:32:58;;;;;;;;;27.00;25.00;;;33.83;96184.17;;;;117097;1193;25525;-9
2022/04/09 10:35:28;;;;;;;;;30.75;30.00;;;33.80;96181.19;;;;117176;1193;25596;-9
2022/04/09 10:38:06;;;;;;;;;30.50;26.00;;;33.83;96176.06;;;;117070;1193;25248;-13
2022/04/09 10:40:57;;;;;;;;;28.50;26.75;;;33.77;96175.88;;;;117107;1193;24869;-9
2022/04/09 10:43:26;;;;;;;;;29.00;26.33;;;33.81;96178.54;;;;117064;1193;25441;-9
2022/04/09 10:46:11;;;;;;;;;35.50;30.00;;;33.83;96176.98;;;;117211;1193;25339;-10
2022/04/09 10:48:42;;;;;;;;;36.25;30.50;;;33.81;96178.67;;;;117052;1193;25707;-9
2022/04/09 10:51:11;;;;;;;;;29.25;29.25;;;33.75;96178.80;;;;117203;1193;25260;-8
2022/04/09 10:53:50;;;;;;;;;36.00;31.33;;;33.75;96178.70;;;;117077;1193;25045;-9
2022/04/09 10:56:24;;;;;;;;;36.50;31.00;;;33.71;96179.15;;;;117126;1193;25182;-11
2022/04/09 10:59:13;;;;;;;;;32.67;30.67;;;33.70;96181.35;;;;117312;1193;25450;-9
2022/04/09 11:01:51;;;;;;;;;32.00;27.33;;;33.70;96179.73;;;;117039;1193;25128;-9
2022/04/09 11:04:25;;;;;;;;;29.33;28.00;;;33.66;96180.63;;;;117150;1193;25490;-10
2022/04/09 11:07:19;;;;;;;;;33.75;32.00;;;33.66;96181.38;;;;117176;1193;25727;-9
2022/04/09 11:09:56;;;;;;;;;32.50;28.00;;;33.62;96182.71;;;;117048;1193;25281;-9
2022/04/09 11:12:27;;;;;;;;;34.50;28.50;;;33.56;96176.66;;;;117218;1193;25822;-12
2022/04/09 11:15:12;;;;;;;;;32.25;28.75;;;33.63;96172.79;;;;117094;1193;25220;-10
2022/04/09 11:17:47;;;;;;;;;29.33;24.67;;;33.63;96171.07;;;;117076;1193;24962;-9
2022/04/09 11:20:17;;;;;;;;;26.67;25.67;;;33.64;96165.69;;;;117019;1193;24827;-9
2022/04/09 11:22:52;;;;;;;;;31.75;30.00;;;33.61;96165.74;;;;117202;1193;25410;-7
2022/04/09 11:25:22;;;;;;;;;30.75;27.25;;;33.66;96164.67;;;;117160;1191;24918;-8
2022/04/09 11:27:52;;;;;;;;;36.50;29.50;;;33.72;96160.83;;;;117270;1189;25592;-10
2022/04/09 11:30:20;;;;;;;;;29.33;27.33;;;33.70;96160.90;;;;117116;1192;26081;-9
2022/04/09 11:32:48;;;;;;;;;30.00;26.25;;;33.68;96160.15;;;;117210;1191;25087;-9
2022/04/09 11:35:24;;;;;;;;;31.67;27.33;;;33.64;96159.17;;;;117430;1190;24967;-8
2022/04/09 11:37:55;;;;;;;;;26.00;23.00;;;33.70;96157.70;;;;117198;1191;24763;-13
2022/04/09 11:40:27;;;;;;;;;28.50;26.25;;;33.67;96152.78;;;;117172;1191;26463;-11
2022/04/09 11:42:58;;;;;;;;;30.50;28.75;;;33.64;96146.91;;;;117176;1191;24872;-10
2022/04/09 11:45:30;;;;;;;;;31.00;26.50;;;33.61;96143.55;;;;117197;1191;25697;-9
2022/04/09 11:48:00;;;;;;;;;26.67;24.67;;;33.61;96144.60;;;;117282;1191;25437;-9
2022/04/09 11:50:33;;;;;;;;;26.33;23.33;;;33.64;96144.84;;;;117120;1191;24862;-9
2022/04/09 11:53:11;;;;;;;;;25.67;23.33;;;33.59;96140.30;;;;117224;1191;25011;-10
2022/04/09 11:55:47;;;;;;;;;29.00;25.50;;;33.60;96132.82;;;;117481;1190;25110;-10
2022/04/09 11:58:18;;;;;;;;;27.00;23.75;;;33.70;96128.23;;;;117339;1191;25361;-12
2022/04/09 12:00:46;;;;;;;;;24.00;21.00;;;33.74;96124.60;;;;117235;1191;24865;-10
2022/04/09 12:03:15;;;;;;;;;24.00;19.67;;;33.74;96127.22;;;;117108;1192;24940;-10
2022/04/09 12:05:46;;;;;;;;;19.33;18.33;;;33.72;96129.66;;;;117267;1191;25049;-12
2022/04/09 12:08:17;;;;;;;;;23.00;17.75;;;33.71;96125.20;;;;117080;1192;25432;-9
2022/04/09 12:11:00;;;;;;;;;17.75;17.75;;;33.70;96123.92;;;;117123;1191;25498;-11
2022/04/09 12:13:35;;;;;;;;;21.00;17.25;;;33.69;96121.67;;;;117429;1191;25319;-9
2022/04/09 12:16:14;;;;;;;;;17.33;15.00;;;33.75;96117.78;;;;117192;1191;25127;-9